Time;durP1;ratioP1;P1;durP2;ratioP2;P2;SDS_P1;SDS_P2;PMS_P1;PMS_P2;Temp;Humidity;BMP_temperature;BMP_pressure;BME280_temperature;BME280_humidity;BME280_pressure;Samples;Min_cycle;Max_cycle;Signal;HPM_P1;HPM_P2
2022/01/22 00:00:43;;;;;;;18.33;9.20;;;;;;;-2.17;100.00;98442.19;4886545;29;20670;-62
2022/01/22 00:03:28;;;;;;;16.50;8.07;;;;;;;-2.05;100.00;98440.53;4885592;29;20068;-58
2022/01/22 00:06:14;;;;;;;16.00;8.65;;;;;;;-2.04;100.00;98439.72;4879095;29;20059;-55
2022/01/22 00:08:58;;;;;;;13.02;7.88;;;;;;;-1.93;100.00;98438.03;4886214;29;20065;-63
2022/01/22 00:11:51;;;;;;;16.45;8.57;;;;;;;-1.97;100.00;98444.06;4860184;29;20056;-54
2022/01/22 00:14:39;;;;;;;16.42;8.45;;;;;;;-1.82;100.00;98451.13;4879864;29;20056;-58
2022/01/22 00:17:24;;;;;;;15.52;8.02;;;;;;;-1.76;100.00;98457.25;4888314;29;20088;-64
2022/01/22 00:20:10;;;;;;;;;;;;;;;-1.85;100.00;98451.09;4890925;29;20060;-56
2022/01/22 00:22:54;;;;;;;16.35;8.32;;;;;;;-2.08;100.00;98461.31;4884426;29;19930;-64
2022/01/22 00:25:39;;;;;;;16.02;8.60;;;;;;;-2.20;100.00;98461.22;4890224;29;20090;-61
2022/01/22 00:28:23;;;;;;;17.73;8.82;;;;;;;-2.28;100.00;98457.69;4876134;29;20435;-57
2022/01/22 00:31:10;;;;;;;18.63;9.07;;;;;;;-2.07;100.00;98463.03;4875741;29;20111;-66
2022/01/22 00:33:55;;;;;;;17.10;9.38;;;;;;;-2.01;100.00;98460.47;4890142;29;20096;-59
2022/01/22 00:36:40;;;;;;;16.48;8.63;;;;;;;-1.86;100.00;98458.00;4891463;29;20744;-61
2022/01/22 00:39:25;;;;;;;14.60;8.77;;;;;;;-1.85;100.00;98459.78;4891018;29;20528;-60
2022/01/22 00:42:13;;;;;;;;;;;;;;;-1.83;100.00;98468.44;4876560;29;20072;-66
2022/01/22 00:45:00;;;;;;;13.60;8.13;;;;;;;-2.16;100.00;98460.38;4887016;29;22369;-57
2022/01/22 00:47:48;;;;;;;19.70;8.13;;;;;;;-1.94;100.00;98459.69;4874805;29;20691;-57
2022/01/22 00:50:33;;;;;;;14.73;8.93;;;;;;;-1.75;100.00;98465.88;4886873;29;20064;-60
2022/01/22 00:53:18;;;;;;;16.67;8.57;;;;;;;-1.67;100.00;98461.59;4882547;29;20108;-57
2022/01/22 00:56:04;;;;;;;15.07;8.02;;;;;;;-1.87;100.00;98460.59;4886357;29;20067;-65
2022/01/22 00:58:49;;;;;;;16.00;8.27;;;;;;;-1.65;100.00;98478.97;4883116;29;20127;-60
2022/01/22 01:01:35;;;;;;;17.05;8.18;;;;;;;-1.85;100.00;98471.88;4884587;29;20477;-58
2022/01/22 01:04:20;;;;;;;18.58;8.18;;;;;;;-1.85;100.00;98479.69;4884856;29;20092;-58
2022/01/22 01:07:05;;;;;;;13.77;7.47;;;;;;;-1.83;100.00;98485.72;4890188;29;20123;-53
2022/01/22 01:09:50;;;;;;;14.27;7.47;;;;;;;-1.81;100.00;98484.03;4891081;29;20060;-67
2022/01/22 01:12:37;;;;;;;14.45;7.90;;;;;;;-1.80;100.00;98484.03;4883579;29;20048;-57
2022/01/22 01:33:54;;;;;;;15.70;7.72;;;;;;;-1.82;100.00;98487.50;4888698;29;20071;-58
2022/01/22 01:36:23;;;;;;;14.43;7.32;;;;;;;-1.84;100.00;98495.28;4887820;29;20063;-56
2022/01/22 01:39:12;;;;;;;19.73;7.40;;;;;;;-1.78;100.00;98486.66;4882517;29;20055;-58
2022/01/22 01:42:06;;;;;;;12.70;6.85;;;;;;;-2.02;100.00;98491.66;4888026;29;20131;-69
2022/01/22 01:44:52;;;;;;;14.45;7.30;;;;;;;-1.99;100.00;98497.72;4878103;29;20064;-61
2022/01/22 01:48:11;;;;;;;18.02;6.85;;;;;;;-2.10;100.00;98481.19;4889770;29;20512;-60
2022/01/22 01:50:58;;;;;;;13.27;7.20;;;;;;;-2.04;100.00;98489.03;4889536;29;20065;-58
2022/01/22 01:59:31;;;;;;;12.30;7.18;;;;;;;-2.10;100.00;98503.69;4889040;29;20067;-60
2022/01/22 02:02:20;;;;;;;14.27;7.00;;;;;;;-2.08;100.00;98502.84;4875277;29;20108;-67
2022/01/22 02:05:08;;;;;;;13.95;6.90;;;;;;;-2.14;100.00;98500.19;4889835;29;20055;-52
2022/01/22 02:07:55;;;;;;;11.40;6.88;;;;;;;-2.08;100.00;98494.19;4873799;29;20785;-53
2022/01/22 02:10:54;;;;;;;12.98;6.93;;;;;;;-1.94;100.00;98510.78;4872595;29;20080;-56
2022/01/22 02:23:44;;;;;;;12.98;6.32;;;;;;;-1.79;100.00;98518.66;4891318;29;20055;-61
2022/01/22 02:26:29;;;;;;;11.27;6.75;;;;;;;-1.76;100.00;98511.78;4877096;29;20891;-54
2022/01/22 02:29:15;;;;;;;13.05;6.78;;;;;;;-1.94;100.00;98524.59;4869683;29;20109;-54
2022/01/22 02:38:17;;;;;;;15.13;7.60;;;;;;;-1.93;100.00;98530.69;4877023;29;20156;-63
2022/01/22 02:41:03;;;;;;;13.43;7.38;;;;;;;-2.00;100.00;98529.75;4877662;29;20084;-52
2022/01/22 02:43:49;;;;;;;17.10;7.47;;;;;;;-1.98;100.00;98522.84;4867404;29;20071;-52
2022/01/22 02:46:38;;;;;;;14.20;6.93;;;;;;;-2.00;100.00;98519.38;4879178;29;20402;-55
2022/01/22 02:49:23;;;;;;;13.32;7.45;;;;;;;-1.94;100.00;98513.38;4863205;29;20122;-72
2022/01/22 02:52:09;;;;;;;13.73;7.85;;;;;;;-1.82;100.00;98540.28;4898103;29;20083;-54
2022/01/22 02:54:56;;;;;;;15.35;7.05;;;;;;;-1.90;100.00;98543.69;4897477;29;20091;-58
2022/01/22 02:57:44;;;;;;;14.82;7.00;;;;;;;-1.92;100.00;98537.59;4877397;29;20144;-53
2022/01/22 03:00:32;;;;;;;15.18;7.55;;;;;;;-1.96;100.00;98538.44;4892226;29;20068;-51
2022/01/22 03:03:19;;;;;;;13.02;7.15;;;;;;;-1.91;100.00;98540.22;4877986;29;20181;-54
2022/01/22 03:06:04;;;;;;;15.52;7.53;;;;;;;-2.18;100.00;98550.34;4890823;29;20115;-55
2022/01/22 03:08:51;;;;;;;16.63;7.82;;;;;;;-2.18;100.00;98559.88;4890497;29;20099;-57
2022/01/22 03:12:11;;;;;;;14.05;7.47;;;;;;;-2.14;100.00;98559.91;4899498;29;20067;-58
2022/01/22 03:18:32;;;;;;;15.27;7.57;;;;;;;-2.10;100.00;98566.84;4890343;29;20597;-54
2022/01/22 03:21:11;;;;;;;21.17;7.15;;;;;;;-2.14;100.00;98566.84;4891940;29;20055;-54
2022/01/22 03:30:03;;;;;;;13.70;7.28;;;;;;;-2.11;100.00;98574.63;4889520;29;20552;-64
2022/01/22 03:32:52;;;;;;;15.80;7.57;;;;;;;-2.17;100.00;98577.19;4891113;29;20079;-58
2022/01/22 03:35:44;;;;;;;10.95;6.93;;;;;;;-2.12;100.00;98585.88;4889160;29;20663;-58
2022/01/22 03:38:30;;;;;;;17.27;8.05;;;;;;;-1.97;100.00;98588.63;4887388;29;20136;-62
2022/01/22 03:41:16;;;;;;;16.50;7.70;;;;;;;-2.01;100.00;98586.88;4877638;29;20109;-53
2022/01/22 03:44:08;;;;;;;16.92;7.88;;;;;;;-1.91;100.00;98591.28;4889875;29;20083;-54
2022/01/22 03:46:55;;;;;;;15.10;8.15;;;;;;;-1.83;100.00;98595.69;4891202;29;20059;-57
2022/01/22 03:49:40;;;;;;;;;;;;;;;-1.88;100.00;98602.59;4893420;29;20115;-63
2022/01/22 03:52:29;;;;;;;12.73;7.53;;;;;;;-1.94;100.00;98615.50;4884697;29;20421;-59
2022/01/22 03:58:48;;;;;;;16.65;8.80;;;;;;;-1.83;100.00;98621.69;4889143;29;20143;-63
2022/01/22 04:02:35;;;;;;;17.23;8.00;;;;;;;-1.89;100.00;98616.44;4877852;29;20059;-61
2022/01/22 04:05:08;;;;;;;18.08;9.32;;;;;;;-1.92;100.00;98629.38;4887537;29;20043;-58
2022/01/22 04:10:41;;;;;;;16.08;8.80;;;;;;;-1.81;100.00;98630.38;4878169;29;20051;-61
2022/01/22 04:13:32;;;;;;;19.23;9.52;;;;;;;-1.87;100.00;98635.47;4900766;29;20609;-60
2022/01/22 04:16:17;;;;;;;17.38;8.75;;;;;;;-1.73;100.00;98627.84;4889161;29;20047;-53
2022/01/22 04:25:11;;;;;;;18.08;9.10;;;;;;;-1.54;100.00;98641.00;4882356;29;20468;-63
2022/01/22 04:27:56;;;;;;;17.20;9.10;;;;;;;-1.56;100.00;98654.84;4873830;29;20083;-62
2022/01/22 04:30:42;;;;;;;17.30;9.38;;;;;;;-1.56;100.00;98652.25;4888414;29;20052;-61
2022/01/22 04:33:27;;;;;;;16.35;8.70;;;;;;;-1.42;100.00;98655.84;4881000;29;20546;-55
2022/01/22 04:36:12;;;;;;;16.30;9.20;;;;;;;-1.36;100.00;98653.28;4887544;29;20056;-66
2022/01/22 04:38:57;;;;;;;14.70;8.48;;;;;;;-1.51;100.00;98641.03;4884600;29;20140;-57
2022/01/22 04:41:42;;;;;;;17.83;9.38;;;;;;;-1.61;100.00;98665.22;4870683;29;20113;-57
2022/01/22 04:44:31;;;;;;;17.55;9.48;;;;;;;-1.54;100.00;98661.78;4881025;29;20107;-55
2022/01/22 04:47:35;;;;;;;17.25;8.93;;;;;;;-1.54;100.00;98669.59;4861183;29;20838;-58
2022/01/22 04:56:13;;;;;;;15.90;8.27;;;;;;;-1.53;100.00;98676.56;4868986;29;20112;-58
2022/01/22 04:58:58;;;;;;;15.43;8.68;;;;;;;-1.34;100.00;98669.78;4885476;29;20663;-60
2022/01/22 05:01:43;;;;;;;19.15;8.98;;;;;;;-1.30;100.00;98671.56;4890050;29;20513;-54
2022/01/22 05:04:42;;;;;;;17.45;8.82;;;;;;;-1.25;100.00;98673.34;4886743;29;20077;-64
2022/01/22 05:07:47;;;;;;;15.63;9.23;;;;;;;-1.15;100.00;98689.91;4882685;29;20071;-56
2022/01/22 05:10:58;;;;;;;17.17;8.38;;;;;;;-1.21;100.00;98687.22;4877297;29;20131;-56
2022/01/22 05:13:42;;;;;;;15.48;8.80;;;;;;;-1.25;100.00;98696.75;4881774;29;20056;-67
2022/01/22 05:16:30;;;;;;;15.30;8.55;;;;;;;-1.49;100.00;98704.31;4886103;29;20063;-55
2022/01/22 05:19:27;;;;;;;15.88;9.27;;;;;;;-1.39;100.00;98716.53;4880467;29;20087;-67
2022/01/22 05:22:27;;;;;;;19.02;9.38;;;;;;;-1.26;100.00;98717.53;4876220;29;20063;-65
2022/01/22 05:25:20;;;;;;;18.70;9.52;;;;;;;-1.13;100.00;98711.56;4892821;29;20060;-57
2022/01/22 05:31:38;;;;;;;18.17;9.30;;;;;;;-1.55;100.00;98726.75;4858220;29;20074;-66
2022/01/22 05:37:55;;;;;;;18.60;8.93;;;;;;;-1.55;100.00;98734.53;4877412;29;20060;-54
2022/01/22 05:40:42;;;;;;;19.38;9.88;;;;;;;-1.54;100.00;98736.31;4884426;29;20056;-59
2022/01/22 05:43:27;;;;;;;22.60;9.57;;;;;;;-1.49;100.00;98745.91;4877004;29;20056;-57
2022/01/22 05:46:12;;;;;;;22.60;9.65;;;;;;;-1.49;100.00;98748.50;4889524;29;20421;-60
2022/01/22 05:48:59;;;;;;;20.50;9.88;;;;;;;-1.45;100.00;98746.78;4889366;29;20087;-65
2022/01/22 05:51:46;;;;;;;20.52;10.52;;;;;;;-1.29;100.00;98751.28;4887105;29;20088;-61
2022/01/22 06:01:00;;;;;;;19.40;10.52;;;;;;;-1.30;100.00;98753.00;4859977;29;20078;-57
2022/01/22 06:04:04;;;;;;;20.40;10.73;;;;;;;-1.48;100.00;98764.94;4858878;29;20639;-57
2022/01/22 06:06:50;;;;;;;21.30;10.68;;;;;;;-1.45;100.00;98768.47;4863875;29;20051;-57
2022/01/22 06:09:40;;;;;;;17.88;10.05;;;;;;;-1.70;100.00;98776.81;4870646;29;20140;-58
2022/01/22 06:12:44;;;;;;;20.77;10.68;;;;;;;-1.55;100.00;98777.00;4854683;29;20048;-65
2022/01/22 06:15:30;;;;;;;19.38;10.82;;;;;;;-1.33;100.00;98780.72;4885896;29;20088;-58
2022/01/22 06:18:33;;;;;;;20.75;10.77;;;;;;;-1.16;100.00;98789.53;4880892;29;20585;-52
2022/01/22 06:21:20;;;;;;;17.58;10.40;;;;;;;-1.15;100.00;98793.91;4877596;29;20055;-56
2022/01/22 06:24:06;;;;;;;18.27;10.40;;;;;;;-1.06;100.00;98796.59;4878735;29;20128;-56
2022/01/22 06:26:53;;;;;;;16.80;9.40;;;;;;;-1.05;100.00;98791.41;4853623;29;20060;-57
2022/01/22 06:29:38;;;;;;;20.83;10.38;;;;;;;-0.98;100.00;98800.16;4888395;29;20056;-65
2022/01/22 06:32:26;;;;;;;19.45;10.45;;;;;;;-1.05;100.00;98793.13;4888181;29;20163;-54
2022/01/22 06:35:13;;;;;;;17.17;9.77;;;;;;;-0.95;100.00;98805.38;4886525;29;20156;-56
2022/01/22 06:38:02;;;;;;;19.73;10.27;;;;;;;-1.09;100.00;98804.34;4892836;29;20056;-56
2022/01/22 06:44:24;;;;;;;20.35;10.30;;;;;;;-0.87;100.00;98821.94;4874801;29;20096;-57
2022/01/22 06:47:18;;;;;;;19.60;10.20;;;;;;;-0.88;100.00;98813.25;4876371;29;20097;-58
2022/01/22 06:50:13;;;;;;;15.88;9.93;;;;;;;-0.81;100.00;98817.66;4886560;29;20055;-57
2022/01/22 06:53:12;;;;;;;18.08;10.32;;;;;;;-0.78;100.00;98825.47;4890237;29;20108;-53
2022/01/22 06:56:02;;;;;;;20.50;10.73;;;;;;;-0.76;100.00;98841.97;4868616;29;20084;-57
2022/01/22 06:59:08;;;;;;;21.23;10.48;;;;;;;-0.79;100.00;98841.94;4890619;29;20509;-59
2022/01/22 07:01:54;;;;;;;19.17;10.43;;;;;;;-0.90;100.00;98853.13;4886826;29;20059;-59
2022/01/22 07:04:43;;;;;;;21.38;10.35;;;;;;;-1.12;100.00;98848.53;4875908;29;20052;-53
2022/01/22 07:07:43;;;;;;;18.50;10.77;;;;;;;-1.17;100.00;98853.69;4877763;29;20157;-55
2022/01/22 07:10:29;;;;;;;17.50;9.90;;;;;;;-0.98;100.00;98866.03;4891739;29;20198;-51
2022/01/22 07:13:15;;;;;;;17.73;11.00;;;;;;;-0.63;100.00;98869.84;4888105;29;20077;-55
2022/01/22 07:16:04;;;;;;;21.52;10.90;;;;;;;-0.66;100.00;98872.41;4888199;29;20112;-60
2022/01/22 07:18:52;;;;;;;18.67;10.18;;;;;;;-0.70;100.00;98880.22;4874446;29;20421;-67
2022/01/22 07:21:41;;;;;;;22.05;10.52;;;;;;;-0.97;100.00;98887.72;4875339;29;20059;-62
2022/01/22 07:24:30;;;;;;;19.58;11.45;;;;;;;-0.90;100.00;98879.97;4873975;29;20052;-58
2022/01/22 07:27:19;;;;;;;18.20;10.10;;;;;;;-1.07;100.00;98886.75;4871556;29;20060;-64
2022/01/22 07:30:05;;;;;;;;;;;;;;;-0.80;100.00;98901.78;4886405;29;20706;-59
2022/01/22 07:32:53;;;;;;;23.17;11.55;;;;;;;-0.81;100.00;98908.72;4890186;29;19975;-57
2022/01/22 07:35:38;;;;;;;18.00;10.75;;;;;;;-0.80;100.00;98910.47;4886863;29;20105;-56
2022/01/22 07:38:27;;;;;;;23.75;11.23;;;;;;;-0.94;100.00;98921.56;4883576;29;20087;-59
2022/01/22 07:41:12;;;;;;;19.67;11.07;;;;;;;-1.28;100.00;98924.59;4897916;29;20071;-65
2022/01/22 07:44:04;;;;;;;21.45;11.32;;;;;;;-1.24;100.00;98929.88;4877296;29;20469;-59
2022/01/22 07:47:07;;;;;;;24.27;11.93;;;;;;;-1.20;100.00;98917.78;4891659;29;20422;-56
2022/01/22 07:49:55;;;;;;;21.85;12.02;;;;;;;-1.07;100.00;98943.97;4878113;29;20052;-54
2022/01/22 07:52:40;;;;;;;24.33;12.00;;;;;;;-0.86;100.00;98951.16;4888101;29;20104;-61
2022/01/22 07:55:25;;;;;;;28.98;13.48;;;;;;;-1.03;100.00;98950.09;4890058;29;20059;-57
2022/01/22 07:58:11;;;;;;;28.45;13.50;;;;;;;-1.26;100.00;98961.91;4891349;29;20473;-57
2022/01/22 08:00:56;;;;;;;26.50;12.23;;;;;;;-0.92;100.00;98957.16;4877101;29;20047;-56
2022/01/22 08:03:42;;;;;;;25.30;12.18;;;;;;;-1.08;100.00;98938.72;4889816;29;20573;-63
2022/01/22 08:06:45;;;;;;;27.40;13.07;;;;;;;-0.98;100.00;98954.47;4889756;29;20466;-58
2022/01/22 08:09:50;;;;;;;26.05;12.85;;;;;;;-0.97;100.00;98958.84;4890832;29;20059;-53
2022/01/22 08:12:49;;;;;;;;;;;;;;;-0.71;100.00;98964.34;4892461;29;20524;-61
2022/01/22 08:15:34;;;;;;;22.83;11.75;;;;;;;-0.41;100.00;98970.75;4890217;29;19930;-53
2022/01/22 08:18:19;;;;;;;22.98;12.05;;;;;;;-0.23;100.00;98970.91;4890559;29;20119;-58
2022/01/22 08:21:04;;;;;;;24.80;12.85;;;;;;;-0.23;100.00;98967.47;4877891;29;20059;-55
2022/01/22 08:24:08;;;;;;;21.25;11.38;;;;;;;-0.14;100.00;98971.03;4889031;29;20054;-60
2022/01/22 08:29:58;;;;;;;23.15;12.30;;;;;;;-0.17;100.00;98981.41;4891425;29;20524;-58
2022/01/22 08:35:54;;;;;;;20.05;12.05;;;;;;;0.14;100.00;98990.34;4861738;29;20063;-66
2022/01/22 08:38:40;;;;;;;19.98;11.80;;;;;;;0.22;100.00;98991.28;4890076;29;20103;-65
2022/01/22 08:41:28;;;;;;;24.55;12.10;;;;;;;0.19;100.00;99003.44;4890882;29;20140;-57
2022/01/22 08:44:13;;;;;;;24.60;11.95;;;;;;;0.30;100.00;99004.38;4877068;29;20096;-60
2022/01/22 08:46:58;;;;;;;18.33;11.23;;;;;;;0.20;100.00;99002.56;4890519;29;20056;-59
2022/01/22 08:49:44;;;;;;;22.75;12.00;;;;;;;-0.08;100.00;99007.53;4873891;29;20529;-55
2022/01/22 08:52:32;;;;;;;26.67;12.60;;;;;;;0.01;100.00;99010.22;4888108;29;20533;-59
2022/01/22 08:55:17;;;;;;;24.90;12.25;;;;;;;0.23;100.00;99021.69;4865119;29;20154;-58
2022/01/22 08:58:05;;;;;;;22.88;12.63;;;;;;;-0.06;100.00;99023.19;4888805;29;20059;-58
2022/01/22 09:00:58;;;;;;;21.40;12.27;;;;;;;0.04;100.00;99025.88;4877906;29;20128;-56
2022/01/22 09:03:51;;;;;;;26.95;12.63;;;;;;;0.29;100.00;99026.09;4890755;29;20469;-63
2022/01/22 09:07:07;;;;;;;22.50;13.15;;;;;;;0.30;100.00;99025.22;4869261;29;20145;-61
2022/01/22 09:10:15;;;;;;;33.58;15.02;;;;;;;0.37;100.00;99032.25;4814554;29;20103;-56
2022/01/22 09:13:21;;;;;;;24.27;13.52;;;;;;;0.51;100.00;99036.72;4814857;29;20543;-56
2022/01/22 09:16:22;;;;;;;27.00;14.20;;;;;;;0.51;100.00;99041.91;4805415;29;20077;-73
2022/01/22 09:19:11;;;;;;;31.23;13.88;;;;;;;0.48;100.00;99046.25;4803368;29;20170;-65
2022/01/22 09:22:00;;;;;;;29.73;14.40;;;;;;;0.47;100.00;99044.53;4802463;29;20196;-61
2022/01/22 09:24:45;;;;;;;24.30;13.35;;;;;;;0.45;100.00;99054.03;4815922;29;20098;-66
2022/01/22 09:27:31;;;;;;;;;;;;;;;0.51;100.00;99061.94;4815964;29;20053;-60
2022/01/22 09:30:20;;;;;;;24.55;13.77;;;;;;;0.19;100.00;99073.81;4802978;29;19948;-58
2022/01/22 09:33:06;;;;;;;27.10;14.15;;;;;;;0.23;100.00;99073.84;4800474;29;20151;-57
2022/01/22 09:36:10;;;;;;;29.02;14.13;;;;;;;0.16;100.00;99079.88;4798733;29;20582;-69
2022/01/22 09:39:15;;;;;;;29.08;14.45;;;;;;;-0.03;100.00;99077.94;4816468;29;20089;-53
2022/01/22 09:42:22;;;;;;;28.42;14.80;;;;;;;0.24;100.00;99075.59;4817925;29;20858;-57
2022/01/22 09:45:33;;;;;;;30.48;15.82;;;;;;;0.11;100.00;99085.91;4818306;29;20048;-57
2022/01/22 09:48:47;;;;;;;31.88;16.05;;;;;;;0.21;100.00;99078.19;4885077;29;20135;-59
2022/01/22 09:51:51;;;;;;;29.52;15.85;;;;;;;0.23;100.00;99070.38;4887327;29;20055;-59
2022/01/22 09:55:09;;;;;;;33.58;15.65;;;;;;;0.21;100.00;99088.59;4847465;29;20198;-60
2022/01/22 09:58:15;;;;;;;35.97;17.73;;;;;;;0.37;100.00;99081.78;4841410;29;20080;-56
2022/01/22 10:01:28;;;;;;;36.28;16.85;;;;;;;0.55;100.00;99090.63;4841922;29;20056;-57
2022/01/22 10:04:17;;;;;;;34.22;17.17;;;;;;;0.50;100.00;99086.25;4832493;29;20534;-59
2022/01/22 10:07:31;;;;;;;32.45;16.67;;;;;;;0.60;100.00;99088.06;4828141;29;20110;-57
2022/01/22 10:10:40;;;;;;;32.88;15.90;;;;;;;0.71;100.00;99092.50;4825243;29;20684;-57
2022/01/22 10:13:59;;;;;;;31.85;16.33;;;;;;;0.79;100.00;99089.97;4812754;29;20077;-59
2022/01/22 10:16:50;;;;;;;37.08;17.02;;;;;;;0.87;100.00;99102.19;4811859;29;20726;-63
2022/01/22 10:19:35;;;;;;;32.00;16.48;;;;;;;0.63;100.00;99088.97;4821842;29;20057;-58
2022/01/22 10:22:21;;;;;;;34.53;16.85;;;;;;;0.83;100.00;99087.38;4815338;29;20105;-63
2022/01/22 10:25:24;;;;;;;33.45;16.20;;;;;;;0.91;100.00;99088.31;4816731;29;20068;-56
2022/01/22 10:28:14;;;;;;;34.15;17.58;;;;;;;0.74;100.00;99107.34;4825008;29;20465;-62
2022/01/22 10:31:17;;;;;;;39.95;17.67;;;;;;;0.55;100.00;99106.28;4845954;29;20145;-63
2022/01/22 10:34:31;;;;;;;35.88;17.42;;;;;;;0.84;100.00;99111.75;4838202;29;20435;-71
2022/01/22 10:37:57;;;;;;;30.27;15.88;;;;;;;1.05;100.00;99119.72;4805528;29;20892;-57
2022/01/22 10:40:44;;;;;;;31.98;15.32;;;;;;;1.20;100.00;99106.78;4808309;29;20061;-57
2022/01/22 10:43:32;;;;;;;33.38;15.07;;;;;;;1.17;100.00;99118.09;4820758;29;20571;-64
2022/01/22 10:49:24;;;;;;;30.52;14.50;;;;;;;1.28;100.00;99125.97;4842905;29;20063;-61
2022/01/22 10:52:11;;;;;;;29.90;14.10;;;;;;;1.22;100.00;99123.34;4851073;29;20084;-65
2022/01/22 10:55:06;;;;;;;23.50;12.75;;;;;;;1.47;100.00;99139.19;4832053;29;20577;-57
2022/01/22 10:58:11;;;;;;;27.27;13.07;;;;;;;1.46;100.00;99139.16;4851195;29;20290;-55
2022/01/22 11:01:06;;;;;;;26.27;13.15;;;;;;;1.33;100.00;99143.41;4849987;29;20064;-59
2022/01/22 11:04:09;;;;;;;26.55;12.63;;;;;;;1.25;100.00;99155.56;4839180;29;20486;-59
2022/01/22 11:07:03;;;;;;;25.35;13.52;;;;;;;1.06;100.00;99160.66;4848859;29;20077;-57
2022/01/22 11:09:50;;;;;;;27.38;13.45;;;;;;;1.09;100.00;99155.44;4812813;29;20102;-55
2022/01/22 11:12:37;;;;;;;26.38;13.65;;;;;;;1.11;100.00;99164.16;4863313;29;20083;-56
2022/01/22 11:15:25;;;;;;;32.47;14.05;;;;;;;1.35;100.00;99170.44;4892130;29;20056;-59
2022/01/22 11:18:11;;;;;;;25.30;13.20;;;;;;;1.55;100.00;99165.31;4879472;29;20064;-60
2022/01/22 11:20:57;;;;;;;27.25;13.57;;;;;;;1.61;100.00;99175.78;4878548;29;20060;-58
2022/01/22 11:23:43;;;;;;;25.95;12.55;;;;;;;1.68;100.00;99173.25;4874897;29;20096;-63
2022/01/22 11:26:30;;;;;;;27.10;13.13;;;;;;;1.61;100.00;99176.69;4877805;29;20201;-56
2022/01/22 11:29:16;;;;;;;27.20;13.15;;;;;;;1.58;100.00;99181.03;4891815;29;20092;-59
2022/01/22 11:32:06;;;;;;;26.67;12.90;;;;;;;1.69;100.00;99181.94;4890596;29;20068;-56
2022/01/22 11:34:55;;;;;;;26.70;12.85;;;;;;;1.77;100.00;99190.69;4891098;29;20123;-56
2022/01/22 11:37:48;;;;;;;22.35;12.25;;;;;;;1.90;100.00;99188.16;4889453;29;20500;-62
2022/01/22 11:40:34;;;;;;;24.83;12.25;;;;;;;1.99;100.00;99200.41;4892101;29;20063;-56
2022/01/22 11:43:27;;;;;;;25.60;12.63;;;;;;;1.89;100.00;99207.31;4879316;29;20067;-56
2022/01/22 11:46:26;;;;;;;23.48;12.23;;;;;;;1.99;100.00;99214.34;4887717;29;20139;-56
2022/01/22 11:49:25;;;;;;;26.40;13.00;;;;;;;1.74;100.00;99206.38;4879489;29;20055;-67
2022/01/22 11:52:13;;;;;;;25.33;12.82;;;;;;;1.83;100.00;99217.75;4894689;29;20059;-64
2022/01/22 11:55:10;;;;;;;22.65;12.60;;;;;;;1.93;100.00;99222.16;4888420;29;20116;-60
2022/01/22 11:58:07;;;;;;;25.25;12.88;;;;;;;1.93;100.00;99223.91;4873278;29;20060;-57
2022/01/22 12:00:51;;;;;;;25.63;12.20;;;;;;;2.03;100.00;99236.16;4891272;29;20055;-61
2022/01/22 12:03:55;;;;;;;22.75;12.48;;;;;;;1.93;100.00;99245.69;4892292;29;20059;-62
2022/01/22 12:07:03;;;;;;;24.80;13.52;;;;;;;2.01;100.00;99246.59;4893214;29;20091;-62
2022/01/22 12:10:04;;;;;;;26.30;12.60;;;;;;;1.84;100.00;99243.00;4885888;29;20056;-56
2022/01/22 12:15:45;;;;;;;28.55;13.48;;;;;;;1.91;100.00;99263.09;4892113;29;20103;-64
2022/01/22 12:18:33;;;;;;;22.20;12.90;;;;;;;2.02;100.00;99271.84;4874478;29;20554;-57
2022/01/22 12:21:50;;;;;;;27.15;13.63;;;;;;;2.07;100.00;99267.56;4872838;29;20162;-60
2022/01/22 12:24:35;;;;;;;25.48;12.52;;;;;;;1.89;100.00;99277.00;4886257;29;20051;-70
2022/01/22 12:27:56;;;;;;;23.25;12.68;;;;;;;1.99;100.00;99284.06;4905909;29;20111;-60
2022/01/22 12:30:47;;;;;;;27.33;12.90;;;;;;;1.80;100.00;99287.41;4834890;29;20061;-63
2022/01/22 12:33:32;;;;;;;22.48;13.35;;;;;;;1.72;100.00;99287.38;4834522;29;20071;-55
2022/01/22 12:36:24;;;;;;;26.48;13.25;;;;;;;1.78;100.00;99297.84;4833713;29;20106;-59
2022/01/22 12:39:16;;;;;;;22.48;13.15;;;;;;;1.70;100.00;99294.28;4837924;29;20060;-64
2022/01/22 12:42:11;;;;;;;24.02;12.63;;;;;;;1.78;100.00;99307.44;4836183;29;20101;-57
2022/01/22 12:45:03;;;;;;;28.38;13.80;;;;;;;1.86;100.00;99310.97;4833019;29;20151;-61
2022/01/22 12:47:49;;;;;;;26.02;13.80;;;;;;;1.91;100.00;99315.38;4834044;29;20152;-54
2022/01/22 12:50:36;;;;;;;20.83;12.98;;;;;;;1.98;100.00;99324.97;4834780;29;20125;-54
2022/01/22 12:53:22;;;;;;;25.45;13.13;;;;;;;1.93;100.00;99323.22;4836515;29;20589;-62
2022/01/22 12:58:59;;;;;;;20.80;11.88;;;;;;;1.74;100.00;99335.25;4834595;29;20426;-58
2022/01/22 13:01:47;;;;;;;22.58;12.68;;;;;;;1.75;100.00;99334.44;4827261;29;20109;-57
2022/01/22 13:04:32;;;;;;;22.35;12.75;;;;;;;1.75;100.00;99334.44;4865366;29;20532;-56
2022/01/22 13:07:52;;;;;;;22.05;11.40;;;;;;;1.72;100.00;99336.13;4878168;29;20099;-59
2022/01/22 13:10:59;;;;;;;19.08;11.23;;;;;;;1.46;100.00;99319.38;4891237;29;20075;-62
2022/01/22 13:13:50;;;;;;;16.95;10.48;;;;;;;1.46;100.00;99341.13;4876911;29;20143;-63
2022/01/22 13:16:46;;;;;;;20.15;10.82;;;;;;;1.41;100.00;99348.06;4891193;29;20124;-58
2022/01/22 13:19:31;;;;;;;20.58;10.95;;;;;;;1.15;100.00;99346.06;4892288;29;20545;-57
2022/01/22 13:22:16;;;;;;;20.15;11.68;;;;;;;1.36;100.00;99351.47;4890733;29;20497;-65
2022/01/22 13:25:13;;;;;;;20.58;11.40;;;;;;;1.44;100.00;99358.53;4889229;29;20116;-57
2022/01/22 13:28:04;;;;;;;19.70;11.88;;;;;;;1.43;100.00;99364.63;4890764;29;20112;-57
2022/01/22 13:30:54;;;;;;;23.50;12.07;;;;;;;1.28;100.00;99351.41;4890444;29;20147;-62
2022/01/22 13:33:59;;;;;;;26.23;12.95;;;;;;;1.38;100.00;99362.84;4890875;29;20055;-62
2022/01/22 13:37:05;;;;;;;21.45;12.32;;;;;;;1.31;100.00;99361.00;4890574;29;20509;-59
2022/01/22 13:48:42;;;;;;;34.42;19.75;;;;;;;1.39;100.00;99391.56;4888374;29;20060;-60
2022/01/22 13:51:29;;;;;;;37.88;19.70;;;;;;;1.52;100.00;99400.38;4889683;29;20159;-59
2022/01/22 13:54:14;;;;;;;48.10;24.25;;;;;;;1.54;100.00;99401.28;4885788;29;20063;-57
2022/01/22 13:57:08;;;;;;;52.28;27.23;;;;;;;1.56;100.00;99403.06;4887709;29;20442;-57
2022/01/22 13:59:56;;;;;;;54.67;28.07;;;;;;;1.36;100.00;99391.53;4886840;29;20132;-59
2022/01/22 14:03:04;;;;;;;57.78;27.65;;;;;;;1.42;100.00;99419.47;4879841;29;20079;-59
2022/01/22 14:05:53;;;;;;;53.22;26.88;;;;;;;1.46;100.00;99427.31;4889597;29;20505;-61
2022/01/22 14:08:38;;;;;;;57.80;29.15;;;;;;;1.52;100.00;99431.72;4888448;29;20131;-66
2022/01/22 14:11:23;;;;;;;57.90;28.95;;;;;;;1.47;100.00;99417.75;4874267;29;20060;-63
2022/01/22 14:14:09;;;;;;;52.35;25.52;;;;;;;1.46;100.00;99437.78;4887751;29;20084;-60
2022/01/22 14:17:13;;;;;;;41.38;22.50;;;;;;;1.43;100.00;99449.94;4885590;29;20076;-63
2022/01/22 14:19:59;;;;;;;48.72;23.65;;;;;;;1.32;100.00;99454.16;4889751;29;20060;-62
2022/01/22 14:23:07;;;;;;;42.08;21.85;;;;;;;1.27;100.00;99458.47;4871889;29;20063;-60
2022/01/22 14:26:09;;;;;;;33.20;17.58;;;;;;;1.16;100.00;99467.88;4888750;29;20470;-59
2022/01/22 14:29:04;;;;;;;27.50;15.25;;;;;;;1.09;100.00;99473.88;4870927;29;20119;-62
2022/01/22 14:31:50;;;;;;;29.45;15.65;;;;;;;1.19;100.00;99471.41;4887807;29;20135;-66
2022/01/22 14:34:42;;;;;;;29.85;15.23;;;;;;;1.18;100.00;99472.25;4876505;29;20060;-64
2022/01/22 14:37:31;;;;;;;24.98;13.63;;;;;;;1.23;100.00;99475.78;4894532;29;20100;-57
2022/01/22 14:44:24;;;;;;;30.15;15.00;;;;;;;1.09;100.00;99469.56;4879397;29;20067;-73
2022/01/22 14:46:58;;;;;;;30.45;14.35;;;;;;;1.13;100.00;99481.78;4876568;29;20054;-59
2022/01/22 14:50:08;;;;;;;26.13;13.73;;;;;;;0.90;100.00;99492.78;4877969;29;20060;-65
2022/01/22 14:52:57;;;;;;;28.80;14.18;;;;;;;0.81;100.00;99493.53;4889552;29;20055;-64
2022/01/22 14:55:59;;;;;;;28.63;13.63;;;;;;;0.89;100.00;99489.28;4871958;29;20172;-63
2022/01/22 14:58:44;;;;;;;27.08;13.65;;;;;;;0.93;100.00;99503.25;4902468;29;20111;-64
2022/01/22 15:01:30;;;;;;;25.88;14.68;;;;;;;1.03;100.00;99500.78;4890978;29;20170;-59